<?xml version="1.0" encoding="UTF-8" standalone="no" ?><gpx xmlns="http://www.topografix.com/GPX/1/1" xmlns:gpxx="http://www.garmin.com/xmlschemas/GpxExtensions/v3" xmlns:gpxtpx="http://www.garmin.com/xmlschemas/TrackPointExtension/v1" creator="Foretrex 301" version="1.1" xmlns:xsi="http://www.w3.org/2001/XMLSchema-instance" xsi:schemaLocation="http://www.topografix.com/GPX/1/1 http://www.topografix.com/GPX/1/1/gpx.xsd http://www.garmin.com/xmlschemas/GpxExtensions/v3 http://www.garmin.com/xmlschemas/GpxExtensions/v3/GpxExtensionsv3.xsd"><metadata><link href="http://www.garmin.com"><text>Garmin International</text></link><time>2010-10-27T14:19:03Z</time></metadata><trk><name>ACTIVE LOG: 27 OCT 2010 09:58</name><trkseg><trkpt lat="51.907914" lon="-2.251806"><ele>42.92</ele><time>2010-10-27T08:58:05Z</time></trkpt><trkpt lat="51.907931" lon="-2.251630"><ele>31.38</ele><time>2010-10-27T08:58:30Z</time></trkpt><trkpt lat="51.907940" lon="-2.251439"><ele>27.05</ele><time>2010-10-27T08:59:02Z</time></trkpt><trkpt lat="51.907984" lon="-2.251414"><ele>22.25</ele><time>2010-10-27T08:59:21Z</time></trkpt><trkpt lat="51.907982" lon="-2.251417"><ele>22.25</ele><time>2010-10-27T09:01:15Z</time></trkpt><trkpt lat="51.907965" lon="-2.251458"><ele>21.29</ele><time>2010-10-27T09:02:25Z</time></trkpt><trkpt lat="51.907945" lon="-2.251486"><ele>20.81</ele><time>2010-10-27T09:02:55Z</time></trkpt><trkpt lat="51.907938" lon="-2.251535"><ele>19.84</ele><time>2010-10-27T09:03:31Z</time></trkpt><trkpt lat="51.907939" lon="-2.251642"><ele>19.84</ele><time>2010-10-27T09:03:45Z</time></trkpt><trkpt lat="51.907924" lon="-2.251700"><ele>16.48</ele><time>2010-10-27T09:04:00Z</time></trkpt><trkpt lat="51.907915" lon="-2.251686"><ele>15.52</ele><time>2010-10-27T09:04:17Z</time></trkpt><trkpt lat="51.907796" lon="-2.251584"><ele>15.04</ele><time>2010-10-27T09:04:33Z</time></trkpt><trkpt lat="51.907659" lon="-2.251497"><ele>14.56</ele><time>2010-10-27T09:04:49Z</time></trkpt><trkpt lat="51.907524" lon="-2.251391"><ele>15.04</ele><time>2010-10-27T09:05:02Z</time></trkpt><trkpt lat="51.907373" lon="-2.251306"><ele>15.04</ele><time>2010-10-27T09:05:17Z</time></trkpt><trkpt lat="51.907236" lon="-2.251223"><ele>14.56</ele><time>2010-10-27T09:05:32Z</time></trkpt><trkpt lat="51.907193" lon="-2.251188"><ele>14.08</ele><time>2010-10-27T09:05:41Z</time></trkpt><trkpt lat="51.907143" lon="-2.251184"><ele>14.08</ele><time>2010-10-27T09:05:47Z</time></trkpt><trkpt lat="51.906940" lon="-2.251134"><ele>14.08</ele><time>2010-10-27T09:06:04Z</time></trkpt><trkpt lat="51.906775" lon="-2.251056"><ele>13.60</ele><time>2010-10-27T09:06:19Z</time></trkpt><trkpt lat="51.906555" lon="-2.250962"><ele>13.60</ele><time>2010-10-27T09:06:37Z</time></trkpt><trkpt lat="51.906387" lon="-2.250896"><ele>13.12</ele><time>2010-10-27T09:06:53Z</time></trkpt><trkpt lat="51.906191" lon="-2.250853"><ele>13.60</ele><time>2010-10-27T09:07:11Z</time></trkpt><trkpt lat="51.906030" lon="-2.250811"><ele>13.12</ele><time>2010-10-27T09:07:26Z</time></trkpt><trkpt lat="51.905846" lon="-2.250751"><ele>13.60</ele><time>2010-10-27T09:07:42Z</time></trkpt><trkpt lat="51.905718" lon="-2.250705"><ele>12.63</ele><time>2010-10-27T09:07:55Z</time></trkpt><trkpt lat="51.905449" lon="-2.250596"><ele>12.15</ele><time>2010-10-27T09:08:16Z</time></trkpt><trkpt lat="51.905204" lon="-2.250484"><ele>13.12</ele><time>2010-10-27T09:08:38Z</time></trkpt><trkpt lat="51.905001" lon="-2.250494"><ele>12.15</ele><time>2010-10-27T09:08:55Z</time></trkpt><trkpt lat="51.904779" lon="-2.250518"><ele>12.15</ele><time>2010-10-27T09:09:14Z</time></trkpt><trkpt lat="51.904587" lon="-2.250566"><ele>12.63</ele><time>2010-10-27T09:09:32Z</time></trkpt><trkpt lat="51.904356" lon="-2.250622"><ele>12.63</ele><time>2010-10-27T09:09:51Z</time></trkpt><trkpt lat="51.904107" lon="-2.250687"><ele>12.63</ele><time>2010-10-27T09:10:12Z</time></trkpt><trkpt lat="51.904060" lon="-2.250704"><ele>11.67</ele><time>2010-10-27T09:10:20Z</time></trkpt><trkpt lat="51.904045" lon="-2.250670"><ele>11.67</ele><time>2010-10-27T09:10:34Z</time></trkpt><trkpt lat="51.903923" lon="-2.250771"><ele>12.63</ele><time>2010-10-27T09:10:46Z</time></trkpt><trkpt lat="51.903867" lon="-2.250836"><ele>12.63</ele><time>2010-10-27T09:10:53Z</time></trkpt><trkpt lat="51.903675" lon="-2.250941"><ele>12.15</ele><time>2010-10-27T09:11:12Z</time></trkpt><trkpt lat="51.903459" lon="-2.251054"><ele>12.15</ele><time>2010-10-27T09:11:30Z</time></trkpt><trkpt lat="51.903220" lon="-2.251137"><ele>11.67</ele><time>2010-10-27T09:11:50Z</time></trkpt><trkpt lat="51.902992" lon="-2.251193"><ele>11.67</ele><time>2010-10-27T09:12:10Z</time></trkpt><trkpt lat="51.902745" lon="-2.251260"><ele>11.67</ele><time>2010-10-27T09:12:32Z</time></trkpt><trkpt lat="51.902503" lon="-2.251278"><ele>10.71</ele><time>2010-10-27T09:12:52Z</time></trkpt><trkpt lat="51.902277" lon="-2.251257"><ele>10.71</ele><time>2010-10-27T09:13:11Z</time></trkpt><trkpt lat="51.902069" lon="-2.251323"><ele>11.19</ele><time>2010-10-27T09:13:30Z</time></trkpt><trkpt lat="51.901914" lon="-2.251415"><ele>10.71</ele><time>2010-10-27T09:13:47Z</time></trkpt><trkpt lat="51.901736" lon="-2.251540"><ele>10.71</ele><time>2010-10-27T09:14:05Z</time></trkpt><trkpt lat="51.901659" lon="-2.251639"><ele>10.23</ele><time>2010-10-27T09:14:21Z</time></trkpt><trkpt lat="51.901666" lon="-2.251716"><ele>9.75</ele><time>2010-10-27T09:14:39Z</time></trkpt><trkpt lat="51.901611" lon="-2.251703"><ele>9.27</ele><time>2010-10-27T09:14:51Z</time></trkpt><trkpt lat="51.901639" lon="-2.251700"><ele>10.23</ele><time>2010-10-27T09:15:12Z</time></trkpt><trkpt lat="51.901631" lon="-2.251704"><ele>10.23</ele><time>2010-10-27T09:15:29Z</time></trkpt><trkpt lat="51.901658" lon="-2.251815"><ele>12.15</ele><time>2010-10-27T09:15:51Z</time></trkpt><trkpt lat="51.901653" lon="-2.251816"><ele>12.15</ele><time>2010-10-27T09:16:03Z</time></trkpt><trkpt lat="51.901629" lon="-2.251698"><ele>11.67</ele><time>2010-10-27T09:16:20Z</time></trkpt><trkpt lat="51.901630" lon="-2.251695"><ele>11.19</ele><time>2010-10-27T09:16:53Z</time></trkpt><trkpt lat="51.901640" lon="-2.251747"><ele>10.71</ele><time>2010-10-27T09:16:58Z</time></trkpt><trkpt lat="51.901684" lon="-2.251750"><ele>11.67</ele><time>2010-10-27T09:17:05Z</time></trkpt><trkpt lat="51.901670" lon="-2.251986"><ele>11.19</ele><time>2010-10-27T09:17:19Z</time></trkpt><trkpt lat="51.901679" lon="-2.252232"><ele>11.19</ele><time>2010-10-27T09:17:35Z</time></trkpt><trkpt lat="51.901675" lon="-2.252276"><ele>10.71</ele><time>2010-10-27T09:17:38Z</time></trkpt><trkpt lat="51.901644" lon="-2.252371"><ele>12.15</ele><time>2010-10-27T09:17:53Z</time></trkpt><trkpt lat="51.901645" lon="-2.252372"><ele>12.63</ele><time>2010-10-27T09:17:56Z</time></trkpt><trkpt lat="51.901700" lon="-2.252491"><ele>13.60</ele><time>2010-10-27T09:18:08Z</time></trkpt><trkpt lat="51.901703" lon="-2.252509"><ele>13.12</ele><time>2010-10-27T09:18:09Z</time></trkpt><trkpt lat="51.901713" lon="-2.252564"><ele>13.60</ele><time>2010-10-27T09:18:12Z</time></trkpt><trkpt lat="51.901781" lon="-2.252874"><ele>13.60</ele><time>2010-10-27T09:18:29Z</time></trkpt><trkpt lat="51.901850" lon="-2.253136"><ele>13.60</ele><time>2010-10-27T09:18:46Z</time></trkpt><trkpt lat="51.901922" lon="-2.253294"><ele>14.56</ele><time>2010-10-27T09:18:58Z</time></trkpt><trkpt lat="51.901993" lon="-2.253434"><ele>16.48</ele><time>2010-10-27T09:19:09Z</time></trkpt><trkpt lat="51.902117" lon="-2.253620"><ele>18.88</ele><time>2010-10-27T09:19:25Z</time></trkpt><trkpt lat="51.902230" lon="-2.253763"><ele>18.40</ele><time>2010-10-27T09:19:39Z</time></trkpt><trkpt lat="51.902335" lon="-2.253914"><ele>17.44</ele><time>2010-10-27T09:19:53Z</time></trkpt><trkpt lat="51.902465" lon="-2.254032"><ele>16.48</ele><time>2010-10-27T09:20:07Z</time></trkpt><trkpt lat="51.902601" lon="-2.254162"><ele>16.48</ele><time>2010-10-27T09:20:21Z</time></trkpt><trkpt lat="51.902737" lon="-2.254293"><ele>16.00</ele><time>2010-10-27T09:20:36Z</time></trkpt><trkpt lat="51.902880" lon="-2.254421"><ele>16.48</ele><time>2010-10-27T09:20:51Z</time></trkpt><trkpt lat="51.902946" lon="-2.254501"><ele>16.96</ele><time>2010-10-27T09:21:03Z</time></trkpt><trkpt lat="51.902987" lon="-2.254490"><ele>15.52</ele><time>2010-10-27T09:21:24Z</time></trkpt><trkpt lat="51.903001" lon="-2.254489"><ele>15.52</ele><time>2010-10-27T09:21:33Z</time></trkpt><trkpt lat="51.902992" lon="-2.254555"><ele>13.60</ele><time>2010-10-27T09:21:40Z</time></trkpt><trkpt lat="51.903039" lon="-2.254581"><ele>13.60</ele><time>2010-10-27T09:21:45Z</time></trkpt><trkpt lat="51.903203" lon="-2.254897"><ele>16.00</ele><time>2010-10-27T09:22:06Z</time></trkpt><trkpt lat="51.903334" lon="-2.255205"><ele>16.00</ele><time>2010-10-27T09:22:26Z</time></trkpt><trkpt lat="51.903450" lon="-2.255455"><ele>16.96</ele><time>2010-10-27T09:22:44Z</time></trkpt><trkpt lat="51.903560" lon="-2.255715"><ele>15.04</ele><time>2010-10-27T09:23:02Z</time></trkpt><trkpt lat="51.903640" lon="-2.255917"><ele>14.56</ele><time>2010-10-27T09:23:16Z</time></trkpt><trkpt lat="51.903700" lon="-2.256180"><ele>16.48</ele><time>2010-10-27T09:23:33Z</time></trkpt><trkpt lat="51.903724" lon="-2.256464"><ele>14.08</ele><time>2010-10-27T09:23:51Z</time></trkpt><trkpt lat="51.903756" lon="-2.256696"><ele>15.04</ele><time>2010-10-27T09:24:05Z</time></trkpt><trkpt lat="51.903802" lon="-2.256998"><ele>14.56</ele><time>2010-10-27T09:24:22Z</time></trkpt><trkpt lat="51.903855" lon="-2.257221"><ele>16.00</ele><time>2010-10-27T09:24:38Z</time></trkpt><trkpt lat="51.903852" lon="-2.257267"><ele>15.52</ele><time>2010-10-27T09:24:43Z</time></trkpt><trkpt lat="51.903838" lon="-2.257438"><ele>13.12</ele><time>2010-10-27T09:24:57Z</time></trkpt><trkpt lat="51.903843" lon="-2.257583"><ele>12.63</ele><time>2010-10-27T09:25:10Z</time></trkpt><trkpt lat="51.903840" lon="-2.257689"><ele>11.19</ele><time>2010-10-27T09:25:24Z</time></trkpt><trkpt lat="51.903784" lon="-2.257781"><ele>8.79</ele><time>2010-10-27T09:25:41Z</time></trkpt><trkpt lat="51.903774" lon="-2.257792"><ele>7.83</ele><time>2010-10-27T09:25:46Z</time></trkpt><trkpt lat="51.903853" lon="-2.257936"><ele>10.23</ele><time>2010-10-27T09:25:57Z</time></trkpt><trkpt lat="51.903865" lon="-2.258210"><ele>10.23</ele><time>2010-10-27T09:26:14Z</time></trkpt><trkpt lat="51.903866" lon="-2.258456"><ele>9.75</ele><time>2010-10-27T09:26:29Z</time></trkpt><trkpt lat="51.903853" lon="-2.258717"><ele>8.79</ele><time>2010-10-27T09:26:45Z</time></trkpt><trkpt lat="51.903834" lon="-2.258918"><ele>7.35</ele><time>2010-10-27T09:26:58Z</time></trkpt><trkpt lat="51.903803" lon="-2.259190"><ele>7.35</ele><time>2010-10-27T09:27:15Z</time></trkpt><trkpt lat="51.903763" lon="-2.259322"><ele>7.35</ele><time>2010-10-27T09:27:25Z</time></trkpt><trkpt lat="51.903688" lon="-2.259454"><ele>6.39</ele><time>2010-10-27T09:27:39Z</time></trkpt><trkpt lat="51.903672" lon="-2.259515"><ele>5.91</ele><time>2010-10-27T09:27:46Z</time></trkpt><trkpt lat="51.903580" lon="-2.259760"><ele>6.87</ele><time>2010-10-27T09:28:03Z</time></trkpt><trkpt lat="51.903504" lon="-2.260010"><ele>6.87</ele><time>2010-10-27T09:28:18Z</time></trkpt><trkpt lat="51.903468" lon="-2.260250"><ele>7.83</ele><time>2010-10-27T09:28:32Z</time></trkpt><trkpt lat="51.903432" lon="-2.260529"><ele>7.83</ele><time>2010-10-27T09:28:48Z</time></trkpt><trkpt lat="51.903346" lon="-2.260798"><ele>8.31</ele><time>2010-10-27T09:29:05Z</time></trkpt><trkpt lat="51.903224" lon="-2.261097"><ele>9.27</ele><time>2010-10-27T09:29:24Z</time></trkpt><trkpt lat="51.903131" lon="-2.261355"><ele>9.27</ele><time>2010-10-27T09:29:41Z</time></trkpt><trkpt lat="51.903054" lon="-2.261610"><ele>9.27</ele><time>2010-10-27T09:29:57Z</time></trkpt><trkpt lat="51.902991" lon="-2.261874"><ele>9.27</ele><time>2010-10-27T09:30:15Z</time></trkpt><trkpt lat="51.902964" lon="-2.262117"><ele>9.27</ele><time>2010-10-27T09:30:30Z</time></trkpt><trkpt lat="51.902964" lon="-2.262133"><ele>9.27</ele><time>2010-10-27T09:30:31Z</time></trkpt><trkpt lat="51.902904" lon="-2.262342"><ele>8.79</ele><time>2010-10-27T09:30:46Z</time></trkpt><trkpt lat="51.902813" lon="-2.262565"><ele>9.27</ele><time>2010-10-27T09:31:03Z</time></trkpt><trkpt lat="51.902741" lon="-2.262782"><ele>10.23</ele><time>2010-10-27T09:31:18Z</time></trkpt><trkpt lat="51.902656" lon="-2.262993"><ele>9.27</ele><time>2010-10-27T09:31:33Z</time></trkpt><trkpt lat="51.902579" lon="-2.263175"><ele>9.27</ele><time>2010-10-27T09:31:48Z</time></trkpt><trkpt lat="51.902449" lon="-2.263364"><ele>6.87</ele><time>2010-10-27T09:32:06Z</time></trkpt><trkpt lat="51.902340" lon="-2.263581"><ele>5.42</ele><time>2010-10-27T09:32:22Z</time></trkpt><trkpt lat="51.902235" lon="-2.263816"><ele>4.46</ele><time>2010-10-27T09:32:40Z</time></trkpt><trkpt lat="51.902139" lon="-2.263986"><ele>4.46</ele><time>2010-10-27T09:32:54Z</time></trkpt><trkpt lat="51.902063" lon="-2.264079"><ele>9.75</ele><time>2010-10-27T09:33:11Z</time></trkpt><trkpt lat="51.902059" lon="-2.264071"><ele>10.71</ele><time>2010-10-27T09:34:00Z</time></trkpt><trkpt lat="51.902068" lon="-2.264096"><ele>10.71</ele><time>2010-10-27T09:35:09Z</time></trkpt><trkpt lat="51.902151" lon="-2.264281"><ele>12.15</ele><time>2010-10-27T09:35:22Z</time></trkpt><trkpt lat="51.902271" lon="-2.264403"><ele>15.04</ele><time>2010-10-27T09:35:36Z</time></trkpt><trkpt lat="51.902353" lon="-2.264523"><ele>16.96</ele><time>2010-10-27T09:35:48Z</time></trkpt><trkpt lat="51.902487" lon="-2.264672"><ele>16.48</ele><time>2010-10-27T09:36:02Z</time></trkpt><trkpt lat="51.902605" lon="-2.264811"><ele>16.48</ele><time>2010-10-27T09:36:17Z</time></trkpt><trkpt lat="51.902743" lon="-2.264972"><ele>17.44</ele><time>2010-10-27T09:36:34Z</time></trkpt><trkpt lat="51.902866" lon="-2.265114"><ele>16.96</ele><time>2010-10-27T09:36:48Z</time></trkpt><trkpt lat="51.902971" lon="-2.265275"><ele>18.88</ele><time>2010-10-27T09:37:02Z</time></trkpt><trkpt lat="51.903099" lon="-2.265404"><ele>20.32</ele><time>2010-10-27T09:37:17Z</time></trkpt><trkpt lat="51.903221" lon="-2.265530"><ele>23.69</ele><time>2010-10-27T09:37:31Z</time></trkpt><trkpt lat="51.903290" lon="-2.265687"><ele>25.13</ele><time>2010-10-27T09:37:44Z</time></trkpt><trkpt lat="51.903417" lon="-2.265759"><ele>24.65</ele><time>2010-10-27T09:37:56Z</time></trkpt><trkpt lat="51.903508" lon="-2.265808"><ele>22.25</ele><time>2010-10-27T09:38:03Z</time></trkpt><trkpt lat="51.903662" lon="-2.265972"><ele>21.29</ele><time>2010-10-27T09:38:19Z</time></trkpt><trkpt lat="51.903786" lon="-2.266052"><ele>19.84</ele><time>2010-10-27T09:38:32Z</time></trkpt><trkpt lat="51.903931" lon="-2.266202"><ele>16.48</ele><time>2010-10-27T09:38:49Z</time></trkpt><trkpt lat="51.903929" lon="-2.266233"><ele>15.04</ele><time>2010-10-27T09:39:15Z</time></trkpt><trkpt lat="51.903948" lon="-2.266215"><ele>13.12</ele><time>2010-10-27T09:39:33Z</time></trkpt><trkpt lat="51.904063" lon="-2.266236"><ele>13.12</ele><time>2010-10-27T09:40:05Z</time></trkpt><trkpt lat="51.904204" lon="-2.266372"><ele>15.04</ele><time>2010-10-27T09:40:19Z</time></trkpt><trkpt lat="51.904334" lon="-2.266513"><ele>15.04</ele><time>2010-10-27T09:40:34Z</time></trkpt><trkpt lat="51.904487" lon="-2.266654"><ele>14.56</ele><time>2010-10-27T09:40:51Z</time></trkpt><trkpt lat="51.904621" lon="-2.266805"><ele>13.60</ele><time>2010-10-27T09:41:07Z</time></trkpt><trkpt lat="51.904784" lon="-2.266926"><ele>12.63</ele><time>2010-10-27T09:41:23Z</time></trkpt><trkpt lat="51.904963" lon="-2.267053"><ele>12.63</ele><time>2010-10-27T09:41:41Z</time></trkpt><trkpt lat="51.905113" lon="-2.267162"><ele>13.60</ele><time>2010-10-27T09:41:57Z</time></trkpt><trkpt lat="51.905320" lon="-2.267327"><ele>14.56</ele><time>2010-10-27T09:42:16Z</time></trkpt><trkpt lat="51.905478" lon="-2.267449"><ele>12.15</ele><time>2010-10-27T09:42:33Z</time></trkpt><trkpt lat="51.905661" lon="-2.267559"><ele>11.19</ele><time>2010-10-27T09:42:52Z</time></trkpt><trkpt lat="51.905831" lon="-2.267644"><ele>12.15</ele><time>2010-10-27T09:43:07Z</time></trkpt><trkpt lat="51.905871" lon="-2.267671"><ele>12.63</ele><time>2010-10-27T09:43:11Z</time></trkpt><trkpt lat="51.905908" lon="-2.267753"><ele>16.00</ele><time>2010-10-27T09:43:28Z</time></trkpt><trkpt lat="51.905925" lon="-2.267755"><ele>18.40</ele><time>2010-10-27T09:43:54Z</time></trkpt><trkpt lat="51.906044" lon="-2.267736"><ele>16.00</ele><time>2010-10-27T09:44:55Z</time></trkpt><trkpt lat="51.906104" lon="-2.267793"><ele>16.00</ele><time>2010-10-27T09:45:03Z</time></trkpt><trkpt lat="51.906269" lon="-2.267889"><ele>15.52</ele><time>2010-10-27T09:45:18Z</time></trkpt><trkpt lat="51.906395" lon="-2.267967"><ele>14.56</ele><time>2010-10-27T09:45:32Z</time></trkpt><trkpt lat="51.906548" lon="-2.268016"><ele>11.67</ele><time>2010-10-27T09:45:48Z</time></trkpt><trkpt lat="51.906667" lon="-2.268083"><ele>11.67</ele><time>2010-10-27T09:46:02Z</time></trkpt><trkpt lat="51.906759" lon="-2.268167"><ele>15.04</ele><time>2010-10-27T09:46:13Z</time></trkpt><trkpt lat="51.906873" lon="-2.268216"><ele>15.52</ele><time>2010-10-27T09:46:25Z</time></trkpt><trkpt lat="51.907056" lon="-2.268306"><ele>14.56</ele><time>2010-10-27T09:46:46Z</time></trkpt><trkpt lat="51.907159" lon="-2.268360"><ele>17.44</ele><time>2010-10-27T09:47:02Z</time></trkpt><trkpt lat="51.907273" lon="-2.268418"><ele>21.29</ele><time>2010-10-27T09:47:16Z</time></trkpt><trkpt lat="51.907438" lon="-2.268489"><ele>23.21</ele><time>2010-10-27T09:47:36Z</time></trkpt><trkpt lat="51.907538" lon="-2.268540"><ele>22.25</ele><time>2010-10-27T09:47:47Z</time></trkpt><trkpt lat="51.907701" lon="-2.268580"><ele>20.32</ele><time>2010-10-27T09:48:03Z</time></trkpt><trkpt lat="51.907877" lon="-2.268621"><ele>19.84</ele><time>2010-10-27T09:48:21Z</time></trkpt><trkpt lat="51.908033" lon="-2.268668"><ele>18.40</ele><time>2010-10-27T09:48:36Z</time></trkpt><trkpt lat="51.908184" lon="-2.268692"><ele>16.96</ele><time>2010-10-27T09:48:51Z</time></trkpt><trkpt lat="51.908329" lon="-2.268697"><ele>16.00</ele><time>2010-10-27T09:49:05Z</time></trkpt><trkpt lat="51.908497" lon="-2.268777"><ele>15.04</ele><time>2010-10-27T09:49:24Z</time></trkpt><trkpt lat="51.908631" lon="-2.268814"><ele>15.52</ele><time>2010-10-27T09:49:38Z</time></trkpt><trkpt lat="51.908748" lon="-2.268834"><ele>18.88</ele><time>2010-10-27T09:49:53Z</time></trkpt><trkpt lat="51.908824" lon="-2.268860"><ele>16.96</ele><time>2010-10-27T09:50:17Z</time></trkpt><trkpt lat="51.908838" lon="-2.268826"><ele>18.40</ele><time>2010-10-27T09:51:04Z</time></trkpt><trkpt lat="51.908876" lon="-2.268820"><ele>16.00</ele><time>2010-10-27T09:51:22Z</time></trkpt><trkpt lat="51.909035" lon="-2.268839"><ele>15.04</ele><time>2010-10-27T09:51:36Z</time></trkpt><trkpt lat="51.909244" lon="-2.268865"><ele>13.12</ele><time>2010-10-27T09:51:56Z</time></trkpt><trkpt lat="51.909375" lon="-2.268881"><ele>12.15</ele><time>2010-10-27T09:52:09Z</time></trkpt><trkpt lat="51.909493" lon="-2.268906"><ele>12.15</ele><time>2010-10-27T09:52:22Z</time></trkpt><trkpt lat="51.909667" lon="-2.268932"><ele>11.67</ele><time>2010-10-27T09:52:38Z</time></trkpt><trkpt lat="51.909680" lon="-2.268955"><ele>11.67</ele><time>2010-10-27T09:52:41Z</time></trkpt><trkpt lat="51.909721" lon="-2.269008"><ele>12.63</ele><time>2010-10-27T09:52:49Z</time></trkpt><trkpt lat="51.909761" lon="-2.268996"><ele>12.15</ele><time>2010-10-27T09:52:54Z</time></trkpt><trkpt lat="51.909943" lon="-2.269031"><ele>13.12</ele><time>2010-10-27T09:53:09Z</time></trkpt><trkpt lat="51.910135" lon="-2.269055"><ele>12.63</ele><time>2010-10-27T09:53:25Z</time></trkpt><trkpt lat="51.910333" lon="-2.269068"><ele>12.15</ele><time>2010-10-27T09:53:42Z</time></trkpt><trkpt lat="51.910532" lon="-2.268991"><ele>11.67</ele><time>2010-10-27T09:53:59Z</time></trkpt><trkpt lat="51.910717" lon="-2.269049"><ele>9.75</ele><time>2010-10-27T09:54:17Z</time></trkpt><trkpt lat="51.910905" lon="-2.269141"><ele>11.67</ele><time>2010-10-27T09:54:34Z</time></trkpt><trkpt lat="51.911063" lon="-2.269178"><ele>10.71</ele><time>2010-10-27T09:54:50Z</time></trkpt><trkpt lat="51.911245" lon="-2.269204"><ele>11.19</ele><time>2010-10-27T09:55:06Z</time></trkpt><trkpt lat="51.911398" lon="-2.269242"><ele>11.67</ele><time>2010-10-27T09:55:22Z</time></trkpt><trkpt lat="51.911534" lon="-2.269286"><ele>11.67</ele><time>2010-10-27T09:55:37Z</time></trkpt><trkpt lat="51.911602" lon="-2.269329"><ele>11.19</ele><time>2010-10-27T09:55:54Z</time></trkpt><trkpt lat="51.911621" lon="-2.269384"><ele>12.63</ele><time>2010-10-27T09:56:06Z</time></trkpt><trkpt lat="51.911641" lon="-2.269371"><ele>13.12</ele><time>2010-10-27T09:57:13Z</time></trkpt><trkpt lat="51.911636" lon="-2.269361"><ele>8.31</ele><time>2010-10-27T09:58:00Z</time></trkpt><trkpt lat="51.911634" lon="-2.269310"><ele>4.94</ele><time>2010-10-27T10:10:33Z</time></trkpt><trkpt lat="51.911645" lon="-2.269372"><ele>8.31</ele><time>2010-10-27T10:10:43Z</time></trkpt><trkpt lat="51.911635" lon="-2.269363"><ele>6.87</ele><time>2010-10-27T10:11:34Z</time></trkpt><trkpt lat="51.911641" lon="-2.269352"><ele>6.87</ele><time>2010-10-27T10:11:51Z</time></trkpt><trkpt lat="51.911628" lon="-2.269361"><ele>7.35</ele><time>2010-10-27T10:12:20Z</time></trkpt><trkpt lat="51.911637" lon="-2.269363"><ele>8.31</ele><time>2010-10-27T10:12:29Z</time></trkpt><trkpt lat="51.911637" lon="-2.269362"><ele>6.87</ele><time>2010-10-27T10:12:49Z</time></trkpt><trkpt lat="51.911629" lon="-2.269379"><ele>5.91</ele><time>2010-10-27T10:13:54Z</time></trkpt><trkpt lat="51.911624" lon="-2.269376"><ele>5.42</ele><time>2010-10-27T10:13:55Z</time></trkpt><trkpt lat="51.911644" lon="-2.269335"><ele>5.42</ele><time>2010-10-27T10:14:00Z</time></trkpt><trkpt lat="51.911851" lon="-2.269512"><ele>8.31</ele><time>2010-10-27T10:14:17Z</time></trkpt><trkpt lat="51.911857" lon="-2.269532"><ele>8.79</ele><time>2010-10-27T10:14:18Z</time></trkpt><trkpt lat="51.912014" lon="-2.269700"><ele>12.63</ele><time>2010-10-27T10:14:32Z</time></trkpt><trkpt lat="51.912042" lon="-2.269760"><ele>13.12</ele><time>2010-10-27T10:14:36Z</time></trkpt><trkpt lat="51.912312" lon="-2.269970"><ele>13.12</ele><time>2010-10-27T10:14:58Z</time></trkpt><trkpt lat="51.912547" lon="-2.270077"><ele>11.67</ele><time>2010-10-27T10:15:15Z</time></trkpt><trkpt lat="51.912783" lon="-2.270155"><ele>10.71</ele><time>2010-10-27T10:15:32Z</time></trkpt><trkpt lat="51.913007" lon="-2.270254"><ele>10.71</ele><time>2010-10-27T10:15:48Z</time></trkpt><trkpt lat="51.913256" lon="-2.270356"><ele>10.23</ele><time>2010-10-27T10:16:05Z</time></trkpt><trkpt lat="51.913434" lon="-2.270407"><ele>11.19</ele><time>2010-10-27T10:16:18Z</time></trkpt><trkpt lat="51.913640" lon="-2.270461"><ele>13.12</ele><time>2010-10-27T10:16:32Z</time></trkpt><trkpt lat="51.913920" lon="-2.270552"><ele>15.52</ele><time>2010-10-27T10:16:52Z</time></trkpt><trkpt lat="51.914033" lon="-2.270616"><ele>16.96</ele><time>2010-10-27T10:17:03Z</time></trkpt><trkpt lat="51.914094" lon="-2.270657"><ele>16.48</ele><time>2010-10-27T10:17:07Z</time></trkpt><trkpt lat="51.914335" lon="-2.270679"><ele>14.56</ele><time>2010-10-27T10:17:24Z</time></trkpt><trkpt lat="51.914500" lon="-2.270701"><ele>13.12</ele><time>2010-10-27T10:17:39Z</time></trkpt><trkpt lat="51.914551" lon="-2.270783"><ele>12.63</ele><time>2010-10-27T10:17:53Z</time></trkpt><trkpt lat="51.914574" lon="-2.270796"><ele>12.15</ele><time>2010-10-27T10:18:23Z</time></trkpt><trkpt lat="51.914740" lon="-2.270720"><ele>10.71</ele><time>2010-10-27T10:18:34Z</time></trkpt><trkpt lat="51.914928" lon="-2.270716"><ele>12.15</ele><time>2010-10-27T10:18:52Z</time></trkpt><trkpt lat="51.915141" lon="-2.270795"><ele>13.12</ele><time>2010-10-27T10:19:10Z</time></trkpt><trkpt lat="51.915335" lon="-2.270821"><ele>13.12</ele><time>2010-10-27T10:19:26Z</time></trkpt><trkpt lat="51.915502" lon="-2.270837"><ele>12.15</ele><time>2010-10-27T10:19:41Z</time></trkpt><trkpt lat="51.915688" lon="-2.270840"><ele>13.60</ele><time>2010-10-27T10:19:56Z</time></trkpt><trkpt lat="51.915877" lon="-2.270842"><ele>13.60</ele><time>2010-10-27T10:20:12Z</time></trkpt><trkpt lat="51.916037" lon="-2.270854"><ele>10.71</ele><time>2010-10-27T10:20:27Z</time></trkpt><trkpt lat="51.916215" lon="-2.270836"><ele>8.31</ele><time>2010-10-27T10:20:45Z</time></trkpt><trkpt lat="51.916294" lon="-2.270829"><ele>9.75</ele><time>2010-10-27T10:20:53Z</time></trkpt><trkpt lat="51.916385" lon="-2.270818"><ele>13.60</ele><time>2010-10-27T10:21:10Z</time></trkpt><trkpt lat="51.916388" lon="-2.270846"><ele>15.52</ele><time>2010-10-27T10:21:50Z</time></trkpt><trkpt lat="51.916402" lon="-2.270816"><ele>15.04</ele><time>2010-10-27T10:22:07Z</time></trkpt><trkpt lat="51.916403" lon="-2.270835"><ele>14.56</ele><time>2010-10-27T10:22:43Z</time></trkpt><trkpt lat="51.916552" lon="-2.270759"><ele>12.63</ele><time>2010-10-27T10:22:58Z</time></trkpt><trkpt lat="51.916734" lon="-2.270673"><ele>10.71</ele><time>2010-10-27T10:23:15Z</time></trkpt><trkpt lat="51.916907" lon="-2.270585"><ele>12.63</ele><time>2010-10-27T10:23:31Z</time></trkpt><trkpt lat="51.916979" lon="-2.270520"><ele>12.15</ele><time>2010-10-27T10:23:38Z</time></trkpt><trkpt lat="51.917172" lon="-2.270441"><ele>11.19</ele><time>2010-10-27T10:23:55Z</time></trkpt><trkpt lat="51.917339" lon="-2.270341"><ele>12.15</ele><time>2010-10-27T10:24:11Z</time></trkpt><trkpt lat="51.917522" lon="-2.270204"><ele>12.63</ele><time>2010-10-27T10:24:31Z</time></trkpt><trkpt lat="51.917707" lon="-2.270080"><ele>13.60</ele><time>2010-10-27T10:24:49Z</time></trkpt><trkpt lat="51.917870" lon="-2.269955"><ele>13.12</ele><time>2010-10-27T10:25:06Z</time></trkpt><trkpt lat="51.918021" lon="-2.269825"><ele>13.60</ele><time>2010-10-27T10:25:22Z</time></trkpt><trkpt lat="51.918049" lon="-2.269804"><ele>13.60</ele><time>2010-10-27T10:25:25Z</time></trkpt><trkpt lat="51.918221" lon="-2.269672"><ele>14.08</ele><time>2010-10-27T10:25:42Z</time></trkpt><trkpt lat="51.918411" lon="-2.269509"><ele>13.12</ele><time>2010-10-27T10:26:01Z</time></trkpt><trkpt lat="51.918579" lon="-2.269343"><ele>13.12</ele><time>2010-10-27T10:26:19Z</time></trkpt><trkpt lat="51.918724" lon="-2.269200"><ele>13.12</ele><time>2010-10-27T10:26:35Z</time></trkpt><trkpt lat="51.918800" lon="-2.269135"><ele>13.12</ele><time>2010-10-27T10:26:42Z</time></trkpt><trkpt lat="51.918977" lon="-2.268938"><ele>12.63</ele><time>2010-10-27T10:27:01Z</time></trkpt><trkpt lat="51.919129" lon="-2.268743"><ele>11.19</ele><time>2010-10-27T10:27:18Z</time></trkpt><trkpt lat="51.919297" lon="-2.268542"><ele>11.67</ele><time>2010-10-27T10:27:37Z</time></trkpt><trkpt lat="51.919458" lon="-2.268330"><ele>12.63</ele><time>2010-10-27T10:27:54Z</time></trkpt><trkpt lat="51.919623" lon="-2.268110"><ele>13.12</ele><time>2010-10-27T10:28:12Z</time></trkpt><trkpt lat="51.919701" lon="-2.267965"><ele>12.63</ele><time>2010-10-27T10:28:26Z</time></trkpt><trkpt lat="51.919815" lon="-2.267777"><ele>12.63</ele><time>2010-10-27T10:28:43Z</time></trkpt><trkpt lat="51.919917" lon="-2.267543"><ele>13.12</ele><time>2010-10-27T10:29:00Z</time></trkpt><trkpt lat="51.920029" lon="-2.267378"><ele>14.08</ele><time>2010-10-27T10:29:15Z</time></trkpt><trkpt lat="51.920168" lon="-2.267254"><ele>14.08</ele><time>2010-10-27T10:29:31Z</time></trkpt><trkpt lat="51.920294" lon="-2.267127"><ele>15.04</ele><time>2010-10-27T10:29:46Z</time></trkpt><trkpt lat="51.920403" lon="-2.267034"><ele>14.08</ele><time>2010-10-27T10:30:00Z</time></trkpt><trkpt lat="51.920555" lon="-2.266888"><ele>15.04</ele><time>2010-10-27T10:30:18Z</time></trkpt><trkpt lat="51.920602" lon="-2.266828"><ele>13.12</ele><time>2010-10-27T10:30:30Z</time></trkpt><trkpt lat="51.920723" lon="-2.266683"><ele>12.63</ele><time>2010-10-27T10:30:45Z</time></trkpt><trkpt lat="51.920825" lon="-2.266511"><ele>15.04</ele><time>2010-10-27T10:31:00Z</time></trkpt><trkpt lat="51.920830" lon="-2.266510"><ele>15.52</ele><time>2010-10-27T10:31:27Z</time></trkpt><trkpt lat="51.920843" lon="-2.266464"><ele>15.52</ele><time>2010-10-27T10:31:48Z</time></trkpt><trkpt lat="51.920847" lon="-2.266480"><ele>14.08</ele><time>2010-10-27T10:32:05Z</time></trkpt><trkpt lat="51.920843" lon="-2.266528"><ele>10.23</ele><time>2010-10-27T10:32:51Z</time></trkpt><trkpt lat="51.920873" lon="-2.266516"><ele>11.67</ele><time>2010-10-27T10:32:56Z</time></trkpt><trkpt lat="51.921063" lon="-2.266414"><ele>13.12</ele><time>2010-10-27T10:33:12Z</time></trkpt><trkpt lat="51.921171" lon="-2.266353"><ele>12.15</ele><time>2010-10-27T10:33:28Z</time></trkpt><trkpt lat="51.921260" lon="-2.266303"><ele>11.67</ele><time>2010-10-27T10:33:39Z</time></trkpt><trkpt lat="51.921306" lon="-2.266255"><ele>11.67</ele><time>2010-10-27T10:33:45Z</time></trkpt><trkpt lat="51.921401" lon="-2.266156"><ele>13.60</ele><time>2010-10-27T10:33:59Z</time></trkpt><trkpt lat="51.921539" lon="-2.266021"><ele>14.08</ele><time>2010-10-27T10:34:15Z</time></trkpt><trkpt lat="51.921690" lon="-2.265862"><ele>14.08</ele><time>2010-10-27T10:34:31Z</time></trkpt><trkpt lat="51.921717" lon="-2.265844"><ele>14.08</ele><time>2010-10-27T10:34:39Z</time></trkpt><trkpt lat="51.921867" lon="-2.265670"><ele>11.67</ele><time>2010-10-27T10:34:56Z</time></trkpt><trkpt lat="51.921969" lon="-2.265538"><ele>10.71</ele><time>2010-10-27T10:35:10Z</time></trkpt><trkpt lat="51.922070" lon="-2.265417"><ele>14.08</ele><time>2010-10-27T10:35:23Z</time></trkpt><trkpt lat="51.922160" lon="-2.265307"><ele>13.60</ele><time>2010-10-27T10:35:36Z</time></trkpt><trkpt lat="51.922256" lon="-2.265159"><ele>14.56</ele><time>2010-10-27T10:35:53Z</time></trkpt><trkpt lat="51.922264" lon="-2.265154"><ele>16.48</ele><time>2010-10-27T10:36:15Z</time></trkpt><trkpt lat="51.922283" lon="-2.265136"><ele>16.48</ele><time>2010-10-27T10:36:40Z</time></trkpt><trkpt lat="51.922292" lon="-2.265114"><ele>16.00</ele><time>2010-10-27T10:37:33Z</time></trkpt><trkpt lat="51.922294" lon="-2.265113"><ele>16.00</ele><time>2010-10-27T10:37:35Z</time></trkpt><trkpt lat="51.922300" lon="-2.265115"><ele>15.04</ele><time>2010-10-27T10:37:38Z</time></trkpt><trkpt lat="51.922299" lon="-2.265157"><ele>14.08</ele><time>2010-10-27T10:37:55Z</time></trkpt><trkpt lat="51.922296" lon="-2.265156"><ele>14.08</ele><time>2010-10-27T10:37:56Z</time></trkpt><trkpt lat="51.922285" lon="-2.265096"><ele>14.08</ele><time>2010-10-27T10:38:01Z</time></trkpt><trkpt lat="51.922299" lon="-2.265019"><ele>13.12</ele><time>2010-10-27T10:38:05Z</time></trkpt><trkpt lat="51.922517" lon="-2.264709"><ele>12.63</ele><time>2010-10-27T10:38:26Z</time></trkpt><trkpt lat="51.922704" lon="-2.264445"><ele>11.67</ele><time>2010-10-27T10:38:46Z</time></trkpt><trkpt lat="51.922884" lon="-2.264193"><ele>13.12</ele><time>2010-10-27T10:39:05Z</time></trkpt><trkpt lat="51.923035" lon="-2.263985"><ele>14.56</ele><time>2010-10-27T10:39:22Z</time></trkpt><trkpt lat="51.923161" lon="-2.263798"><ele>15.04</ele><time>2010-10-27T10:39:39Z</time></trkpt><trkpt lat="51.923184" lon="-2.263773"><ele>14.56</ele><time>2010-10-27T10:39:42Z</time></trkpt><trkpt lat="51.923299" lon="-2.263568"><ele>14.56</ele><time>2010-10-27T10:40:00Z</time></trkpt><trkpt lat="51.923342" lon="-2.263448"><ele>15.04</ele><time>2010-10-27T10:40:13Z</time></trkpt><trkpt lat="51.923350" lon="-2.263430"><ele>15.04</ele><time>2010-10-27T10:40:36Z</time></trkpt><trkpt lat="51.923350" lon="-2.263421"><ele>14.08</ele><time>2010-10-27T10:41:10Z</time></trkpt><trkpt lat="51.923367" lon="-2.263371"><ele>15.04</ele><time>2010-10-27T10:41:25Z</time></trkpt><trkpt lat="51.923379" lon="-2.263390"><ele>15.04</ele><time>2010-10-27T10:41:46Z</time></trkpt><trkpt lat="51.923378" lon="-2.263390"><ele>15.04</ele><time>2010-10-27T10:42:08Z</time></trkpt><trkpt lat="51.923367" lon="-2.263296"><ele>13.12</ele><time>2010-10-27T10:42:15Z</time></trkpt><trkpt lat="51.923233" lon="-2.263015"><ele>9.75</ele><time>2010-10-27T10:42:32Z</time></trkpt><trkpt lat="51.923151" lon="-2.262769"><ele>6.87</ele><time>2010-10-27T10:42:49Z</time></trkpt><trkpt lat="51.923045" lon="-2.262488"><ele>7.83</ele><time>2010-10-27T10:43:08Z</time></trkpt><trkpt lat="51.922927" lon="-2.262218"><ele>9.27</ele><time>2010-10-27T10:43:26Z</time></trkpt><trkpt lat="51.922802" lon="-2.262028"><ele>10.23</ele><time>2010-10-27T10:43:43Z</time></trkpt><trkpt lat="51.922794" lon="-2.262029"><ele>9.75</ele><time>2010-10-27T10:43:57Z</time></trkpt><trkpt lat="51.922701" lon="-2.261833"><ele>8.79</ele><time>2010-10-27T10:44:13Z</time></trkpt><trkpt lat="51.922595" lon="-2.261653"><ele>10.23</ele><time>2010-10-27T10:44:30Z</time></trkpt><trkpt lat="51.922515" lon="-2.261506"><ele>10.71</ele><time>2010-10-27T10:44:42Z</time></trkpt><trkpt lat="51.922364" lon="-2.261301"><ele>10.71</ele><time>2010-10-27T10:44:59Z</time></trkpt><trkpt lat="51.922160" lon="-2.261050"><ele>7.83</ele><time>2010-10-27T10:45:22Z</time></trkpt><trkpt lat="51.921934" lon="-2.260818"><ele>5.91</ele><time>2010-10-27T10:45:44Z</time></trkpt><trkpt lat="51.921719" lon="-2.260611"><ele>6.87</ele><time>2010-10-27T10:46:04Z</time></trkpt><trkpt lat="51.921491" lon="-2.260364"><ele>6.87</ele><time>2010-10-27T10:46:27Z</time></trkpt><trkpt lat="51.921312" lon="-2.260173"><ele>9.27</ele><time>2010-10-27T10:46:46Z</time></trkpt><trkpt lat="51.921018" lon="-2.259876"><ele>9.75</ele><time>2010-10-27T10:47:14Z</time></trkpt><trkpt lat="51.920968" lon="-2.259815"><ele>8.79</ele><time>2010-10-27T10:47:34Z</time></trkpt><trkpt lat="51.920842" lon="-2.259696"><ele>9.27</ele><time>2010-10-27T10:47:50Z</time></trkpt><trkpt lat="51.920798" lon="-2.259646"><ele>9.75</ele><time>2010-10-27T10:47:56Z</time></trkpt><trkpt lat="51.920658" lon="-2.259558"><ele>11.19</ele><time>2010-10-27T10:48:10Z</time></trkpt><trkpt lat="51.920508" lon="-2.259460"><ele>12.63</ele><time>2010-10-27T10:48:25Z</time></trkpt><trkpt lat="51.920338" lon="-2.259264"><ele>14.56</ele><time>2010-10-27T10:48:44Z</time></trkpt><trkpt lat="51.920301" lon="-2.258923"><ele>14.08</ele><time>2010-10-27T10:49:04Z</time></trkpt><trkpt lat="51.920292" lon="-2.258781"><ele>16.48</ele><time>2010-10-27T10:49:18Z</time></trkpt><trkpt lat="51.920274" lon="-2.258586"><ele>17.44</ele><time>2010-10-27T10:49:31Z</time></trkpt><trkpt lat="51.920183" lon="-2.258383"><ele>18.88</ele><time>2010-10-27T10:49:46Z</time></trkpt><trkpt lat="51.920010" lon="-2.258192"><ele>21.77</ele><time>2010-10-27T10:50:05Z</time></trkpt><trkpt lat="51.920002" lon="-2.258179"><ele>22.25</ele><time>2010-10-27T10:50:06Z</time></trkpt><trkpt lat="51.919903" lon="-2.258036"><ele>23.69</ele><time>2010-10-27T10:50:19Z</time></trkpt><trkpt lat="51.919784" lon="-2.257836"><ele>26.09</ele><time>2010-10-27T10:50:35Z</time></trkpt><trkpt lat="51.919704" lon="-2.257578"><ele>28.98</ele><time>2010-10-27T10:50:50Z</time></trkpt><trkpt lat="51.919684" lon="-2.257269"><ele>30.42</ele><time>2010-10-27T10:51:07Z</time></trkpt><trkpt lat="51.919668" lon="-2.256937"><ele>32.34</ele><time>2010-10-27T10:51:24Z</time></trkpt><trkpt lat="51.919648" lon="-2.256529"><ele>33.78</ele><time>2010-10-27T10:51:44Z</time></trkpt><trkpt lat="51.919610" lon="-2.256137"><ele>35.71</ele><time>2010-10-27T10:52:04Z</time></trkpt><trkpt lat="51.919503" lon="-2.255932"><ele>35.23</ele><time>2010-10-27T10:52:16Z</time></trkpt><trkpt lat="51.919465" lon="-2.255873"><ele>35.23</ele><time>2010-10-27T10:52:20Z</time></trkpt><trkpt lat="51.919439" lon="-2.255833"><ele>35.23</ele><time>2010-10-27T10:52:23Z</time></trkpt><trkpt lat="51.919388" lon="-2.255753"><ele>35.71</ele><time>2010-10-27T10:52:29Z</time></trkpt><trkpt lat="51.919196" lon="-2.255537"><ele>36.19</ele><time>2010-10-27T10:52:48Z</time></trkpt><trkpt lat="51.918996" lon="-2.255409"><ele>36.67</ele><time>2010-10-27T10:53:06Z</time></trkpt><trkpt lat="51.918752" lon="-2.255354"><ele>37.63</ele><time>2010-10-27T10:53:26Z</time></trkpt><trkpt lat="51.918647" lon="-2.255375"><ele>40.03</ele><time>2010-10-27T10:53:41Z</time></trkpt><trkpt lat="51.918634" lon="-2.255426"><ele>40.99</ele><time>2010-10-27T10:53:55Z</time></trkpt><trkpt lat="51.918636" lon="-2.255426"><ele>40.51</ele><time>2010-10-27T10:54:27Z</time></trkpt><trkpt lat="51.918646" lon="-2.255448"><ele>39.55</ele><time>2010-10-27T10:54:51Z</time></trkpt><trkpt lat="51.918649" lon="-2.255457"><ele>38.59</ele><time>2010-10-27T10:55:16Z</time></trkpt><trkpt lat="51.918644" lon="-2.255467"><ele>37.63</ele><time>2010-10-27T10:55:48Z</time></trkpt><trkpt lat="51.918626" lon="-2.255451"><ele>37.15</ele><time>2010-10-27T10:56:42Z</time></trkpt><trkpt lat="51.918613" lon="-2.255417"><ele>36.67</ele><time>2010-10-27T10:56:46Z</time></trkpt><trkpt lat="51.918417" lon="-2.255308"><ele>36.67</ele><time>2010-10-27T10:57:05Z</time></trkpt><trkpt lat="51.918244" lon="-2.255022"><ele>35.71</ele><time>2010-10-27T10:57:26Z</time></trkpt><trkpt lat="51.918113" lon="-2.254732"><ele>35.23</ele><time>2010-10-27T10:57:45Z</time></trkpt><trkpt lat="51.917992" lon="-2.254449"><ele>34.74</ele><time>2010-10-27T10:58:02Z</time></trkpt><trkpt lat="51.917878" lon="-2.254113"><ele>35.23</ele><time>2010-10-27T10:58:21Z</time></trkpt><trkpt lat="51.917748" lon="-2.253740"><ele>34.74</ele><time>2010-10-27T10:58:43Z</time></trkpt><trkpt lat="51.917600" lon="-2.253433"><ele>34.74</ele><time>2010-10-27T10:59:03Z</time></trkpt><trkpt lat="51.917491" lon="-2.253226"><ele>34.74</ele><time>2010-10-27T10:59:18Z</time></trkpt><trkpt lat="51.917345" lon="-2.252969"><ele>34.26</ele><time>2010-10-27T10:59:37Z</time></trkpt><trkpt lat="51.917213" lon="-2.252743"><ele>34.74</ele><time>2010-10-27T10:59:56Z</time></trkpt><trkpt lat="51.917203" lon="-2.252698"><ele>36.19</ele><time>2010-10-27T11:00:12Z</time></trkpt><trkpt lat="51.917135" lon="-2.252613"><ele>37.15</ele><time>2010-10-27T11:00:42Z</time></trkpt><trkpt lat="51.917005" lon="-2.252403"><ele>37.63</ele><time>2010-10-27T11:01:00Z</time></trkpt><trkpt lat="51.916987" lon="-2.252381"><ele>37.15</ele><time>2010-10-27T11:01:14Z</time></trkpt><trkpt lat="51.916971" lon="-2.252391"><ele>37.15</ele><time>2010-10-27T11:01:27Z</time></trkpt><trkpt lat="51.916784" lon="-2.252431"><ele>38.59</ele><time>2010-10-27T11:01:46Z</time></trkpt><trkpt lat="51.916594" lon="-2.252547"><ele>37.63</ele><time>2010-10-27T11:02:07Z</time></trkpt><trkpt lat="51.916400" lon="-2.252704"><ele>36.67</ele><time>2010-10-27T11:02:27Z</time></trkpt><trkpt lat="51.916184" lon="-2.252856"><ele>36.19</ele><time>2010-10-27T11:02:48Z</time></trkpt><trkpt lat="51.915947" lon="-2.252972"><ele>34.74</ele><time>2010-10-27T11:03:10Z</time></trkpt><trkpt lat="51.915812" lon="-2.253029"><ele>33.30</ele><time>2010-10-27T11:03:24Z</time></trkpt><trkpt lat="51.915745" lon="-2.252967"><ele>32.82</ele><time>2010-10-27T11:03:36Z</time></trkpt><trkpt lat="51.915735" lon="-2.252946"><ele>33.30</ele><time>2010-10-27T11:03:51Z</time></trkpt><trkpt lat="51.915740" lon="-2.252969"><ele>33.30</ele><time>2010-10-27T11:04:09Z</time></trkpt><trkpt lat="51.915740" lon="-2.252976"><ele>32.82</ele><time>2010-10-27T11:04:12Z</time></trkpt><trkpt lat="51.915743" lon="-2.253021"><ele>32.82</ele><time>2010-10-27T11:04:16Z</time></trkpt><trkpt lat="51.915644" lon="-2.253238"><ele>30.90</ele><time>2010-10-27T11:04:32Z</time></trkpt><trkpt lat="51.915473" lon="-2.253550"><ele>28.98</ele><time>2010-10-27T11:04:55Z</time></trkpt><trkpt lat="51.915321" lon="-2.253757"><ele>27.53</ele><time>2010-10-27T11:05:14Z</time></trkpt><trkpt lat="51.915124" lon="-2.253968"><ele>27.05</ele><time>2010-10-27T11:05:35Z</time></trkpt><trkpt lat="51.914993" lon="-2.254253"><ele>25.13</ele><time>2010-10-27T11:05:55Z</time></trkpt><trkpt lat="51.914869" lon="-2.254592"><ele>24.17</ele><time>2010-10-27T11:06:17Z</time></trkpt><trkpt lat="51.914748" lon="-2.254655"><ele>22.73</ele><time>2010-10-27T11:06:34Z</time></trkpt><trkpt lat="51.914657" lon="-2.254665"><ele>21.77</ele><time>2010-10-27T11:06:46Z</time></trkpt><trkpt lat="51.914588" lon="-2.254669"><ele>21.29</ele><time>2010-10-27T11:07:01Z</time></trkpt><trkpt lat="51.914353" lon="-2.254745"><ele>21.77</ele><time>2010-10-27T11:07:22Z</time></trkpt><trkpt lat="51.914100" lon="-2.254846"><ele>21.77</ele><time>2010-10-27T11:07:44Z</time></trkpt><trkpt lat="51.913832" lon="-2.254870"><ele>21.77</ele><time>2010-10-27T11:08:07Z</time></trkpt><trkpt lat="51.913602" lon="-2.254863"><ele>21.29</ele><time>2010-10-27T11:08:27Z</time></trkpt><trkpt lat="51.913339" lon="-2.254852"><ele>21.29</ele><time>2010-10-27T11:08:50Z</time></trkpt><trkpt lat="51.913109" lon="-2.254815"><ele>21.77</ele><time>2010-10-27T11:09:10Z</time></trkpt><trkpt lat="51.912958" lon="-2.254686"><ele>20.81</ele><time>2010-10-27T11:09:27Z</time></trkpt><trkpt lat="51.912895" lon="-2.254546"><ele>20.81</ele><time>2010-10-27T11:09:41Z</time></trkpt><trkpt lat="51.912808" lon="-2.254240"><ele>20.81</ele><time>2010-10-27T11:09:59Z</time></trkpt><trkpt lat="51.912732" lon="-2.253894"><ele>18.40</ele><time>2010-10-27T11:10:19Z</time></trkpt><trkpt lat="51.912686" lon="-2.253667"><ele>16.96</ele><time>2010-10-27T11:10:36Z</time></trkpt><trkpt lat="51.912657" lon="-2.253612"><ele>17.44</ele><time>2010-10-27T11:10:53Z</time></trkpt><trkpt lat="51.912532" lon="-2.253305"><ele>15.52</ele><time>2010-10-27T11:11:12Z</time></trkpt><trkpt lat="51.912387" lon="-2.253067"><ele>14.56</ele><time>2010-10-27T11:11:30Z</time></trkpt><trkpt lat="51.912182" lon="-2.252900"><ele>16.00</ele><time>2010-10-27T11:11:51Z</time></trkpt><trkpt lat="51.911958" lon="-2.252872"><ele>16.48</ele><time>2010-10-27T11:12:11Z</time></trkpt><trkpt lat="51.911744" lon="-2.252877"><ele>16.96</ele><time>2010-10-27T11:12:30Z</time></trkpt><trkpt lat="51.911508" lon="-2.252898"><ele>17.92</ele><time>2010-10-27T11:12:51Z</time></trkpt><trkpt lat="51.911362" lon="-2.252918"><ele>17.44</ele><time>2010-10-27T11:13:07Z</time></trkpt><trkpt lat="51.911134" lon="-2.252932"><ele>17.92</ele><time>2010-10-27T11:13:27Z</time></trkpt><trkpt lat="51.910916" lon="-2.252872"><ele>17.92</ele><time>2010-10-27T11:13:47Z</time></trkpt><trkpt lat="51.910728" lon="-2.252829"><ele>17.44</ele><time>2010-10-27T11:14:04Z</time></trkpt><trkpt lat="51.910473" lon="-2.252820"><ele>17.92</ele><time>2010-10-27T11:14:27Z</time></trkpt><trkpt lat="51.910245" lon="-2.252827"><ele>17.92</ele><time>2010-10-27T11:14:47Z</time></trkpt><trkpt lat="51.909993" lon="-2.252843"><ele>18.88</ele><time>2010-10-27T11:15:11Z</time></trkpt><trkpt lat="51.909789" lon="-2.252848"><ele>18.40</ele><time>2010-10-27T11:15:30Z</time></trkpt><trkpt lat="51.909748" lon="-2.252838"><ele>17.92</ele><time>2010-10-27T11:15:34Z</time></trkpt><trkpt lat="51.909512" lon="-2.252745"><ele>17.44</ele><time>2010-10-27T11:15:56Z</time></trkpt><trkpt lat="51.909302" lon="-2.252681"><ele>17.44</ele><time>2010-10-27T11:16:15Z</time></trkpt><trkpt lat="51.909090" lon="-2.252614"><ele>17.44</ele><time>2010-10-27T11:16:35Z</time></trkpt><trkpt lat="51.909003" lon="-2.252539"><ele>17.92</ele><time>2010-10-27T11:16:49Z</time></trkpt><trkpt lat="51.908840" lon="-2.252439"><ele>16.48</ele><time>2010-10-27T11:17:05Z</time></trkpt><trkpt lat="51.908652" lon="-2.252329"><ele>16.96</ele><time>2010-10-27T11:17:23Z</time></trkpt><trkpt lat="51.908507" lon="-2.252230"><ele>14.56</ele><time>2010-10-27T11:17:37Z</time></trkpt><trkpt lat="51.908352" lon="-2.252057"><ele>12.15</ele><time>2010-10-27T11:17:53Z</time></trkpt><trkpt lat="51.908221" lon="-2.251943"><ele>12.63</ele><time>2010-10-27T11:18:08Z</time></trkpt><trkpt lat="51.908117" lon="-2.251842"><ele>14.08</ele><time>2010-10-27T11:18:24Z</time></trkpt><trkpt lat="51.908044" lon="-2.251757"><ele>18.40</ele><time>2010-10-27T11:18:38Z</time></trkpt><trkpt lat="51.907960" lon="-2.251711"><ele>16.00</ele><time>2010-10-27T11:18:46Z</time></trkpt><trkpt lat="51.907939" lon="-2.251664"><ele>15.52</ele><time>2010-10-27T11:18:50Z</time></trkpt><trkpt lat="51.907928" lon="-2.251511"><ele>14.08</ele><time>2010-10-27T11:19:03Z</time></trkpt></trkseg></trk></gpx>